Portada
METAR-TAF:

METAR-TAF

Aeropuertos :

Aeropuerto Los Tacariguas

Maracay, Venezuela

latitud: 10-15N, longitud: 067-39W, altitud: 436 m

Observación

El informe se hizo hace 37 minutos, a las 01:00 UTC
Viento 5 kt del sur
Temperatura 26°C
Humedad 65%
Presión 1014 hPa
Visibilidad 10 km o más
Escasas nubes a una altura de 1000 ft

METAR: SVBS 230100Z 18005KT 9999 FEW010 26/19 Q1014

Hora: 21:37 (01:37 UTC)


TAF: falta

Observaciones y pronósticos meteorológicos de más de 4000 aeropuertos (mensajes METAR y TAF).

Los puntos amarillos y rojos representan las estaciones disponibles.

Ponga el ratón en el punto deseado para ver el nombre de la estación.

Haga clic para ver las observaciones y los pronósticos meteorológicos.

Para cambiar el mapa : haga clic en los botones verdes con una cruz de color negro para hacer un zoom, en el botón verde con un guión para alejar o en las flechas verdes para mapas adyacentes.


METAR-TAF: